Flight Track Log - Related Links

Times and Time Zones

All times are in EDT time to prevent confusion due to time zone crossing. See the SWA920 flight status page for this flight to view local times or setup timezone preferences in your user account.

Time Position Orientation Groundspeed Altitude Reporting Facility
EDT Latitude Longitude Course Direction KTS MPH feet Rate Location/Type
Sun 07:39:45 PM 33.0433 -79.9933 15° North 264 304 7,700  Level Jacksonville Center
Sun 07:40:45 PM 33.1197 -79.9461 27° Northeast 277 319 11,000 2,650 Climbing Jacksonville Center
Sun 07:41:45 PM 33.2097 -79.8761 33° Northeast 338 389 13,000 2,450 Climbing Jacksonville Center
Sun 07:42:45 PM 33.3061 -79.8008 33° Northeast 369 425 15,900 2,550 Climbing Jacksonville Center
Sun 07:43:45 PM 33.4125 -79.7200 32° Northeast 418 481 18,100 2,350 Climbing Jacksonville Center
Sun 07:44:00 PM 33.4634 -79.8628 13° North  Level FlightAware Approximate
Sun 07:44:45 PM 33.5231 -79.6364 32° Northeast 449 517 20,600  Level Jacksonville Center
Sun 07:45:45 PM 33.6397 -79.5447 33° Northeast 476 548 22,700 2,000 Climbing Jacksonville Center
Sun 07:46:45 PM 33.7583 -79.4578 31° Northeast 495 570 24,600 1,800 Climbing Jacksonville Center
Sun 07:47:45 PM 33.8756 -79.3931 25° Northeast 495 570 26,300 1,750 Climbing Jacksonville Center
Sun 07:48:45 PM 34.0069 -79.3228 24° Northeast 506 582 28,100 1,750 Climbing Jacksonville Center
Sun 07:49:45 PM 34.1469 -79.2494 23° Northeast 520 598 29,800 1,980 Climbing Jacksonville Center
Sun 07:52:05 PM 34.4781 -79.0661 25° Northeast 540 621 34,700 2,010 Climbing Washington Center
Sun 07:53:05 PM 34.6075 -78.9908 26° Northeast 527 606 36,500 1,600 Climbing Washington Center
Sun 07:54:05 PM 34.7389 -78.9181 24° Northeast 517 595 37,900 1,250 Climbing Washington Center
Sun 07:55:05 PM 34.8703 -78.8450 25° Northeast 511 588 39,000 550 Climbing Washington Center
Sun 07:56:05 PM 34.9997 -78.7717 25° Northeast 511 588 39,000  Level Washington Center
Sun 07:57:05 PM 35.1331 -78.6981 24° Northeast 511 588 39,000  Level Washington Center
Sun 07:58:05 PM 35.2642 -78.6242 25° Northeast 511 588 39,000  Level Washington Center
Sun 07:59:05 PM 35.3956 -78.5503 25° Northeast 523 602 39,000  Level Washington Center
Sun 08:00:05 PM 35.5142 -78.4806 26° Northeast 523 602 39,000  Level Washington Center
Sun 08:01:05 PM 35.6494 -78.4064 24° Northeast 517 595 39,000  Level Washington Center
Sun 08:02:05 PM 35.7806 -78.3317 25° Northeast 517 595 39,000  Level Washington Center
Sun 08:03:05 PM 35.9094 -78.2567 25° Northeast 512 589 39,000 -150 Level Washington Center
Sun 08:04:05 PM 36.0383 -78.1839 25° Northeast 512 589 38,700 -1,450 Descending Washington Center
Sun 08:05:05 PM 36.1672 -78.1083 25° Northeast 512 589 36,100 -3,000 Descending Washington Center
Sun 08:06:05 PM 36.2981 -78.0350 24° Northeast 512 589 32,700 -3,350 Descending Washington Center
Sun 08:07:05 PM 36.4289 -77.9567 26° Northeast 519 597 29,400 -1,850 Descending Washington Center
Sun 08:08:05 PM 36.5597 -77.8806 25° Northeast 513 590 29,000 -400 Descending Washington Center
Sun 08:09:05 PM 36.6886 -77.8039 25° Northeast 508 585 28,600 -950 Descending Washington Center
Sun 08:10:05 PM 36.8150 -77.7297 25° Northeast 508 585 27,100 -2,200 Descending Washington Center
Sun 08:11:05 PM 36.9394 -77.6578 25° Northeast 502 578 24,200 -2,050 Descending Washington Center
Sun 08:12:05 PM 37.0656 -77.6064 18° North 483 556 23,000 -600 Descending Washington Center
Sun 08:13:05 PM 37.1892 -77.5628 16° North 465 535 23,000  Level Washington Center
Sun 08:14:05 PM 37.3108 -77.5217 15° North 459 528 23,000  Level Washington Center
Sun 08:15:05 PM 37.4367 -77.4775 16° North 459 528 23,000  Level Washington Center
Sun 08:16:05 PM 37.5625 -77.4336 15° North 459 528 23,000  Level Washington Center
Sun 08:17:05 PM 37.6842 -77.3894 16° North 459 528 23,000  Level Washington Center
Sun 08:18:05 PM 37.8100 -77.3450 16° North 459 528 23,000  Level Washington Center
Sun 08:19:05 PM 37.9339 -77.2978 17° North 459 528 23,000 -850 Level Washington Center
Sun 08:20:05 PM 38.0678 -77.2561 14° North 451 519 21,300 -1,900 Descending Washington Center
Sun 08:21:05 PM 38.1747 -77.2161 16° North 446 513 19,200 -1,850 Descending Washington Center
Sun 08:22:05 PM 38.2817 -77.1708 18° North 428 493 17,600 -2,100 Descending Washington Center
Sun 08:23:05 PM 38.3886 -77.1281 17° North 412 474 15,000 -1,650 Descending Washington Center
Sun 08:24:05 PM 38.4669 -77.0342 43° Northeast 386 444 14,300 -1,700 Descending Washington Center
Sun 08:25:05 PM 38.5472 -76.9375 43° Northeast 386 444 11,600 -1,950 Descending Washington Center
Sun 08:26:05 PM 38.6192 -76.8511 43° Northeast 367 422 10,400 -1,050 Descending Washington Center
Sun 08:27:05 PM 38.6803 -76.7750 44° Northeast 337 388 9,500 -900 Descending Washington Center
Sun 08:28:05 PM 38.7292 -76.6933 52° Northeast 304 350 8,600 -1,282 Descending Washington Center
Sun 08:29:02 PM 38.7667 -76.6000 63° Northeast 275 316 7,000 -1,385 Descending Potomac TRACON
Sun 08:30:02 PM 38.8167 -76.5333 46° Northeast 268 308 5,900 -1,438 Descending Potomac TRACON
Sun 08:31:03 PM 38.9000 -76.5500 351° North 273 314 4,100 -942 Descending Potomac TRACON
Sun 08:32:03 PM 38.9667 -76.5833 339° North 261 300 4,000 -50 Descending Potomac TRACON
Sun 08:33:03 PM 39.0000 -76.6667 297° West 267 307 4,000  Level Potomac TRACON
Sun 08:34:03 PM 39.0333 -76.7500 297° West 269 310 4,000 -95 Level Potomac TRACON
Sun 08:35:09 PM 39.0833 -76.8333 308° West 266 306 3,800 -810 Descending Potomac TRACON
Sun 08:36:09 PM 39.1167 -76.9000 303° West 264 304 2,300 -900 Descending Potomac TRACON
Sun 08:37:09 PM 39.1667 -76.8667 27° Northeast 200 230 2,000 -150 Descending Potomac TRACON
Sun 08:38:09 PM 39.1833 -76.8167 67° East 160 184 2,000 -350 Level Potomac TRACON
Sun 08:39:09 PM 39.1833 -76.7667 90° East 161 185 1,300 -667 Descending Potomac TRACON
Sun 08:40:15 PM 39.1833 -76.7167 90° East 128 147 600 -636 Descending Potomac TRACON
Sun 08:42:00 PM 39.1754 -76.6683 North  Level Estimated
Sun 08:49:00 PM 39.1754 -76.6683 North  Level Estimated

Login

Don't have an account? Register now (free) for customized features, flight alerts, and more!